createdAt,value
2017-08-18T00:02:17.515Z,4.33
2017-08-18T00:04:44.646Z,4.70
2017-08-18T00:07:11.436Z,4.45
2017-08-18T00:09:38.580Z,4.32
2017-08-18T00:12:07.193Z,5.48
2017-08-18T00:14:34.208Z,4.55
2017-08-18T00:17:01.717Z,4.83
2017-08-18T00:19:28.755Z,6.07
2017-08-18T00:24:28.055Z,4.47
2017-08-18T00:26:55.500Z,5.22
2017-08-18T00:29:22.261Z,5.00
2017-08-18T00:31:50.139Z,5.42
2017-08-18T00:34:17.529Z,4.52
2017-08-18T00:36:44.305Z,4.82
2017-08-18T00:39:11.399Z,5.57
2017-08-18T00:41:39.802Z,4.67
2017-08-18T00:44:06.620Z,5.00
2017-08-18T00:46:34.414Z,4.20
2017-08-18T00:49:02.083Z,5.85
2017-08-18T00:51:30.090Z,4.83
2017-08-18T00:53:58.049Z,4.38
2017-08-18T00:56:27.325Z,5.37
2017-08-18T00:58:54.103Z,5.18
2017-08-18T01:01:24.498Z,5.77
2017-08-18T01:03:52.755Z,6.10
2017-08-18T01:06:20.367Z,5.53
2017-08-18T01:08:49.628Z,4.77
2017-08-18T01:11:17.568Z,5.92
2017-08-18T01:13:45.119Z,6.12
2017-08-18T01:16:12.615Z,6.60
2017-08-18T01:18:40.674Z,5.75
2017-08-18T01:21:09.197Z,6.23
2017-08-18T01:23:36.352Z,5.17
2017-08-18T01:26:03.959Z,5.62
2017-08-18T01:28:30.746Z,5.03
2017-08-18T01:30:57.765Z,5.60
2017-08-18T01:33:26.779Z,5.05
2017-08-18T01:35:53.766Z,6.62
2017-08-18T01:38:20.592Z,6.22
2017-08-18T01:40:48.501Z,5.88
2017-08-18T01:43:16.551Z,5.42
2017-08-18T01:45:44.192Z,5.62
2017-08-18T01:48:11.906Z,5.57
2017-08-18T01:50:39.609Z,4.98
2017-08-18T01:53:08.792Z,4.63
2017-08-18T01:55:36.035Z,5.55
2017-08-18T01:58:03.231Z,5.85
2017-08-18T02:00:31.503Z,4.98
2017-08-18T02:02:58.322Z,5.72
2017-08-18T02:05:25.246Z,5.08
2017-08-18T02:07:52.836Z,5.90
2017-08-18T02:10:20.949Z,6.05
2017-08-18T02:12:47.962Z,5.33
2017-08-18T02:15:15.060Z,6.22
2017-08-18T02:17:43.182Z,5.20
2017-08-18T02:20:10.322Z,5.78
2017-08-18T02:22:39.560Z,5.23
2017-08-18T02:25:07.479Z,5.12
2017-08-18T02:27:34.563Z,5.30
2017-08-18T02:30:01.431Z,5.25
2017-08-18T02:32:28.575Z,5.28
2017-08-18T02:34:55.654Z,5.88
2017-08-18T02:37:22.835Z,5.17
2017-08-18T02:39:52.403Z,6.05
2017-08-18T02:42:21.953Z,6.02
2017-08-18T02:44:49.116Z,5.72
2017-08-18T02:47:15.985Z,5.92
2017-08-18T02:49:44.733Z,5.13
2017-08-18T02:52:13.948Z,5.32
2017-08-18T02:54:41.090Z,5.27
2017-08-18T02:57:08.967Z,5.53
2017-08-18T02:59:36.099Z,5.15
2017-08-18T03:02:02.922Z,5.22
2017-08-18T03:04:30.878Z,5.63
2017-08-18T03:06:59.927Z,5.78
2017-08-18T03:09:28.500Z,5.82
2017-08-18T03:11:56.361Z,4.98
2017-08-18T03:14:23.973Z,8.12
2017-08-18T03:16:52.086Z,5.97
2017-08-18T03:19:20.165Z,5.25
2017-08-18T03:21:48.680Z,5.57
2017-08-18T03:24:15.980Z,7.00
2017-08-18T03:26:43.854Z,6.47
2017-08-18T03:29:12.582Z,6.15
2017-08-18T03:31:40.187Z,5.90
2017-08-18T03:34:07.849Z,6.73
2017-08-18T03:36:35.523Z,7.12
2017-08-18T03:39:03.913Z,5.53
2017-08-18T03:41:33.588Z,6.10
2017-08-18T03:44:01.838Z,6.15
2017-08-18T03:46:31.543Z,5.25
2017-08-18T03:49:00.734Z,6.88
2017-08-18T03:51:27.996Z,5.15
2017-08-18T03:53:55.843Z,5.30
2017-08-18T03:56:25.173Z,5.65
2017-08-18T03:58:52.271Z,6.37
2017-08-18T04:01:20.015Z,5.25
2017-08-18T04:03:47.980Z,5.82
2017-08-18T04:06:16.336Z,6.03
2017-08-18T04:08:44.055Z,5.93
2017-08-18T04:11:11.820Z,5.25
2017-08-18T04:13:39.128Z,6.53
2017-08-18T04:16:06.794Z,6.45
2017-08-18T04:18:34.341Z,5.03
2017-08-18T04:21:01.398Z,4.97
2017-08-18T04:23:28.401Z,5.05
2017-08-18T04:25:55.558Z,4.88
2017-08-18T04:28:22.596Z,5.45
2017-08-18T04:30:49.621Z,4.45
2017-08-18T04:33:16.677Z,5.03
2017-08-18T04:35:43.731Z,5.27
2017-08-18T04:38:10.757Z,5.17
2017-08-18T04:40:39.055Z,4.95
2017-08-18T04:43:09.316Z,5.48
2017-08-18T04:45:36.964Z,6.12
2017-08-18T04:48:10.654Z,8.17
2017-08-18T04:50:40.822Z,7.12
2017-08-18T04:53:07.593Z,7.20
2017-08-18T04:55:40.531Z,6.50
2017-08-18T04:58:11.485Z,6.77
2017-08-18T05:00:38.569Z,5.88
2017-08-18T05:03:05.996Z,7.35
2017-08-18T05:05:33.553Z,5.30
2017-08-18T05:08:00.312Z,4.93
2017-08-18T05:10:28.298Z,5.43
2017-08-18T05:12:55.358Z,4.92
2017-08-18T05:15:22.506Z,5.30
2017-08-18T05:17:49.583Z,5.45
2017-08-18T05:20:16.742Z,4.70
2017-08-18T05:22:43.913Z,5.93
2017-08-18T05:25:11.049Z,9.00
2017-08-18T05:27:38.676Z,6.15
2017-08-18T05:30:06.180Z,8.58
2017-08-18T05:38:07.215Z,6.73
2017-08-18T05:40:41.968Z,5.13
2017-08-18T05:43:08.765Z,8.80
2017-08-18T05:45:36.432Z,5.80
2017-08-18T05:48:04.938Z,6.65
2017-08-18T05:50:31.757Z,9.98
2017-08-18T05:52:58.793Z,3.67
2017-08-18T05:55:26.348Z,6.78
2017-08-18T05:57:53.132Z,7.32
2017-08-18T06:00:20.568Z,6.67
2017-08-18T06:02:47.330Z,4.25
2017-08-18T06:05:14.461Z,5.78
2017-08-18T06:07:41.231Z,5.72
2017-08-18T06:10:08.652Z,4.37
2017-08-18T06:12:36.326Z,4.32
2017-08-18T06:15:05.118Z,4.88
2017-08-18T06:17:32.115Z,4.40
2017-08-18T06:22:49.699Z,5.75
2017-08-18T06:25:19.044Z,3.50
2017-08-18T06:27:45.811Z,4.25
2017-08-18T06:30:15.372Z,4.75
2017-08-18T06:32:55.900Z,4.47
2017-08-18T06:35:23.580Z,7.45
2017-08-18T06:40:36.230Z,4.52
2017-08-18T06:43:09.703Z,5.97
2017-08-18T06:45:36.892Z,4.30
2017-08-18T06:50:49.006Z,3.98
2017-08-18T06:53:16.548Z,4.15
2017-08-18T06:55:44.954Z,4.55
2017-08-18T06:58:13.336Z,3.53
2017-08-18T07:00:40.748Z,5.45
2017-08-18T07:03:08.343Z,16.45
2017-08-18T07:05:35.839Z,3.82
2017-08-18T07:08:06.260Z,4.40
2017-08-18T07:10:33.738Z,3.72
2017-08-18T07:13:04.366Z,6.23
2017-08-18T07:15:32.054Z,3.20
2017-08-18T07:17:59.211Z,3.63
2017-08-18T07:20:26.060Z,7.15
2017-08-18T07:22:53.329Z,4.20
2017-08-18T07:25:20.133Z,4.03
2017-08-18T07:27:46.922Z,4.32
2017-08-18T07:30:14.734Z,4.83
2017-08-18T07:32:42.414Z,5.55
2017-08-18T07:35:09.181Z,3.10
2017-08-18T07:37:36.531Z,4.63
2017-08-18T07:40:04.909Z,4.40
2017-08-18T07:42:32.480Z,4.38
2017-08-18T07:44:59.879Z,3.68
2017-08-18T07:47:28.071Z,6.32
2017-08-18T07:49:54.969Z,6.57
2017-08-18T07:52:22.262Z,5.15
2017-08-18T07:54:52.595Z,5.53
2017-08-18T07:57:19.994Z,6.32
2017-08-18T07:59:48.009Z,7.57
2017-08-18T08:02:29.034Z,5.30
2017-08-18T08:05:01.855Z,6.47
2017-08-18T08:07:29.537Z,5.17
2017-08-18T08:15:41.533Z,3.40
2017-08-18T08:18:08.523Z,6.57
2017-08-18T08:23:33.628Z,10.33
2017-08-18T08:26:00.848Z,5.13
2017-08-18T08:28:28.313Z,4.17
2017-08-18T08:30:55.694Z,5.47
2017-08-18T08:33:23.189Z,5.00
2017-08-18T08:35:50.654Z,5.53
2017-08-18T08:38:18.158Z,5.50
2017-08-18T08:40:44.950Z,5.43
2017-08-18T08:43:11.725Z,5.43
2017-08-18T08:48:25.809Z,5.73
2017-08-18T08:51:07.484Z,6.23
2017-08-18T08:53:34.590Z,6.18
2017-08-18T08:56:01.984Z,7.32
2017-08-18T08:58:37.517Z,5.87
2017-08-18T09:01:04.843Z,7.63
2017-08-18T09:03:35.164Z,12.32
2017-08-18T09:06:08.487Z,14.10
2017-08-18T09:08:40.980Z,14.13
2017-08-18T09:11:14.424Z,10.98
2017-08-18T09:13:45.022Z,7.98
2017-08-18T09:16:12.429Z,6.22
2017-08-18T09:18:44.017Z,5.78
2017-08-18T09:21:14.500Z,5.67
2017-08-18T09:23:42.048Z,5.85
2017-08-18T09:26:15.160Z,6.02
2017-08-18T09:28:46.387Z,6.37
2017-08-18T09:31:13.249Z,6.78
2017-08-18T09:33:40.729Z,7.25
2017-08-18T09:36:08.163Z,5.78
2017-08-18T09:38:35.296Z,5.10
2017-08-18T09:41:02.967Z,6.18
2017-08-18T09:43:29.764Z,8.00
2017-08-18T09:45:56.655Z,6.20
2017-08-18T09:48:33.968Z,6.08
2017-08-18T09:51:06.688Z,5.40
2017-08-18T09:53:39.777Z,4.77
2017-08-18T09:56:13.401Z,5.80
2017-08-18T09:58:46.386Z,5.20
2017-08-18T10:01:14.456Z,5.08
2017-08-18T10:03:41.439Z,3.85
2017-08-18T10:06:10.722Z,3.80
2017-08-18T10:08:37.777Z,4.13
2017-08-18T10:11:04.681Z,5.13
2017-08-18T10:13:31.900Z,4.63
2017-08-18T10:15:58.683Z,4.28
2017-08-18T10:18:25.766Z,3.73
2017-08-18T10:20:52.958Z,4.15
2017-08-18T10:23:19.742Z,4.42
2017-08-18T10:25:46.833Z,4.52
2017-08-18T10:28:13.861Z,4.52
2017-08-18T10:30:41.229Z,4.28
2017-08-18T10:33:08.369Z,4.02
2017-08-18T10:35:35.543Z,4.32
2017-08-18T10:38:02.583Z,4.17
2017-08-18T10:40:29.355Z,4.40
2017-08-18T10:42:56.465Z,4.50
2017-08-18T10:45:23.655Z,4.53
2017-08-18T10:47:50.755Z,5.03
2017-08-18T10:50:17.895Z,4.12
2017-08-18T10:52:45.092Z,4.05
2017-08-18T10:55:12.074Z,4.52
2017-08-18T10:57:39.220Z,3.70
2017-08-18T11:00:06.821Z,4.58
2017-08-18T11:02:34.023Z,4.22
2017-08-18T11:05:01.270Z,4.53
2017-08-18T11:07:28.293Z,5.38
2017-08-18T11:09:55.351Z,4.22
2017-08-18T11:12:22.583Z,4.90
2017-08-18T11:14:49.345Z,4.42
2017-08-18T11:17:16.358Z,4.47
2017-08-18T11:19:43.529Z,3.60
2017-08-18T11:22:10.971Z,3.67
2017-08-18T11:24:37.978Z,4.20
2017-08-18T11:27:05.040Z,3.85
2017-08-18T11:29:31.804Z,3.90
2017-08-18T11:31:58.790Z,3.47
2017-08-18T11:34:25.904Z,3.38
2017-08-18T11:36:53.080Z,3.05
2017-08-18T11:39:20.074Z,3.43
2017-08-18T11:41:47.145Z,3.12
2017-08-18T11:44:14.151Z,2.43
2017-08-18T11:46:41.161Z,4.12
2017-08-18T11:49:13.937Z,2.52
2017-08-18T11:51:40.717Z,5.05
2017-08-18T11:54:08.725Z,3.68
2017-08-18T11:56:35.738Z,3.20
2017-08-18T11:59:02.839Z,3.56
2017-08-18T12:01:29.968Z,2.58
2017-08-18T12:03:57.137Z,3.07
2017-08-18T12:06:24.153Z,4.58
2017-08-18T12:08:51.319Z,2.60
2017-08-18T12:11:18.103Z,3.03
2017-08-18T12:13:45.199Z,7.72
2017-08-18T12:16:11.969Z,3.40
2017-08-18T12:18:39.065Z,2.35
2017-08-18T12:21:05.857Z,2.60
2017-08-18T12:23:32.996Z,2.42
2017-08-18T12:26:00.032Z,2.33
2017-08-18T12:28:27.125Z,1.82
2017-08-18T12:30:54.183Z,3.17
2017-08-18T12:33:22.210Z,3.20
2017-08-18T12:35:49.521Z,3.06
2017-08-18T12:38:17.038Z,2.50
2017-08-18T12:40:43.803Z,2.04
2017-08-18T12:43:10.978Z,2.80
2017-08-18T12:45:37.973Z,2.05
2017-08-18T12:48:05.000Z,3.20
2017-08-18T12:50:32.198Z,1.93
2017-08-18T12:52:59.372Z,2.27
2017-08-18T12:55:26.374Z,4.08
2017-08-18T12:57:53.487Z,2.50
2017-08-18T13:00:21.145Z,2.94
2017-08-18T13:02:48.298Z,3.03
2017-08-18T13:05:15.801Z,5.33
2017-08-18T13:07:42.556Z,3.38
2017-08-18T13:10:09.326Z,3.22
2017-08-18T13:12:36.349Z,2.95
2017-08-18T13:15:03.402Z,2.78
2017-08-18T13:17:30.436Z,2.90
2017-08-18T13:19:57.236Z,2.92
2017-08-18T13:22:24.226Z,3.70
2017-08-18T13:24:50.981Z,5.12
2017-08-18T13:27:18.144Z,4.12
2017-08-18T13:29:45.321Z,3.48
2017-08-18T13:32:12.106Z,3.22
2017-08-18T13:34:39.278Z,2.98
2017-08-18T13:37:06.285Z,3.25
2017-08-18T13:39:33.333Z,3.30
2017-08-18T13:42:00.496Z,3.45
2017-08-18T13:44:27.494Z,3.83
2017-08-18T13:46:54.489Z,2.48
2017-08-18T13:49:22.170Z,3.47
2017-08-18T13:51:49.174Z,3.14
2017-08-18T13:54:16.318Z,3.20
2017-08-18T13:56:43.358Z,3.50
2017-08-18T13:59:10.535Z,3.96
2017-08-18T14:01:37.609Z,3.64
2017-08-18T14:04:04.703Z,3.32
2017-08-18T14:06:31.467Z,4.42
2017-08-18T14:08:58.574Z,3.62
2017-08-18T14:11:25.706Z,3.64
2017-08-18T14:13:52.724Z,3.38
2017-08-18T14:16:19.876Z,3.82
2017-08-18T14:18:47.042Z,5.28
2017-08-18T14:21:13.809Z,4.72
2017-08-18T14:23:41.296Z,3.60
2017-08-18T14:26:14.054Z,4.83
2017-08-18T14:28:41.059Z,4.54
2017-08-18T14:31:08.075Z,3.94
2017-08-18T14:33:35.080Z,3.70
2017-08-18T14:36:02.155Z,4.27
2017-08-18T14:38:29.204Z,3.70
2017-08-18T14:40:56.305Z,3.24
2017-08-18T14:43:23.306Z,3.18
2017-08-18T14:45:50.348Z,4.46
2017-08-18T14:48:17.159Z,4.02
2017-08-18T14:50:44.240Z,3.20
2017-08-18T14:53:11.214Z,2.84
2017-08-18T14:55:37.992Z,3.06
2017-08-18T14:58:05.138Z,2.86
2017-08-18T15:00:31.915Z,2.78
2017-08-18T15:02:59.017Z,3.32
2017-08-18T15:05:26.204Z,2.97
2017-08-18T15:07:53.271Z,3.82
2017-08-18T15:10:20.399Z,2.45
2017-08-18T15:12:47.488Z,4.07
2017-08-18T15:15:14.635Z,2.83
2017-08-18T15:17:41.804Z,3.05
2017-08-18T15:20:08.875Z,2.78
2017-08-18T15:22:35.873Z,2.40
2017-08-18T15:25:02.992Z,2.97
2017-08-18T15:27:29.997Z,3.72
2017-08-18T15:29:57.433Z,3.37
2017-08-18T15:32:24.436Z,3.28
2017-08-18T15:34:51.517Z,2.52
2017-08-18T15:37:18.509Z,2.43
2017-08-18T15:39:45.641Z,2.75
2017-08-18T15:42:12.694Z,2.45
2017-08-18T15:44:39.485Z,3.30
2017-08-18T15:47:06.631Z,3.25
2017-08-18T15:49:33.790Z,2.93
2017-08-18T15:52:00.889Z,4.98
2017-08-18T15:54:28.042Z,3.33
2017-08-18T15:56:55.175Z,4.57
2017-08-18T15:59:22.389Z,3.48
2017-08-18T16:01:49.197Z,3.42
2017-08-18T16:04:16.882Z,4.08
2017-08-18T16:06:43.938Z,4.42
2017-08-18T16:09:10.743Z,4.20
2017-08-18T16:11:37.851Z,4.93
2017-08-18T16:14:04.903Z,7.35
2017-08-18T16:16:31.924Z,13.93
2017-08-18T16:18:59.069Z,6.07
2017-08-18T16:21:26.208Z,5.92
2017-08-18T16:23:53.329Z,5.60
2017-08-18T16:26:20.510Z,6.63
2017-08-18T16:28:47.509Z,6.27
2017-08-18T16:31:15.914Z,6.25
2017-08-18T16:33:49.334Z,5.90
2017-08-18T16:36:16.134Z,6.33
2017-08-18T16:38:44.589Z,6.18
2017-08-18T16:41:11.921Z,6.20
2017-08-18T16:43:41.096Z,6.98
2017-08-18T16:46:08.763Z,6.30
2017-08-18T16:48:35.936Z,6.40
2017-08-18T16:51:10.103Z,6.40
2017-08-18T16:53:39.638Z,3.70
2017-08-18T16:56:07.320Z,3.35
2017-08-18T16:58:35.107Z,3.13
2017-08-18T17:03:59.609Z,3.57
2017-08-18T17:09:11.785Z,5.33
2017-08-18T17:11:39.133Z,4.42
2017-08-18T17:14:05.938Z,4.07
2017-08-18T17:16:34.930Z,5.05
2017-08-18T17:19:07.502Z,7.48
2017-08-18T17:27:05.611Z,6.18
2017-08-18T17:40:39.765Z,7.07
2017-08-18T17:43:06.637Z,6.37
2017-08-18T17:45:33.408Z,4.30
2017-08-18T17:48:00.939Z,4.85
2017-08-18T17:56:06.914Z,7.55
2017-08-18T17:58:34.250Z,4.00
2017-08-18T18:01:07.585Z,5.15
2017-08-18T18:06:29.985Z,5.27
2017-08-18T18:08:59.737Z,4.53
2017-08-18T18:16:58.721Z,3.88
2017-08-18T18:19:29.847Z,26.95
2017-08-18T18:22:03.220Z,4.60
2017-08-18T18:24:36.470Z,5.82
2017-08-18T18:27:03.248Z,5.22
2017-08-18T18:32:34.681Z,8.93
2017-08-18T18:35:01.474Z,6.33
2017-08-18T18:37:28.566Z,5.68
2017-08-18T18:42:28.937Z,7.05
2017-08-18T18:44:56.425Z,8.47
2017-08-18T18:47:24.516Z,8.40
2017-08-18T18:49:52.552Z,8.97
2017-08-18T18:52:19.864Z,8.08
2017-08-18T18:54:50.214Z,8.15
2017-08-18T18:57:17.771Z,10.60
2017-08-18T18:59:44.610Z,9.68
2017-08-18T19:02:14.569Z,10.12
2017-08-18T19:04:41.957Z,10.72
2017-08-18T19:07:08.778Z,10.37
2017-08-18T19:09:37.335Z,12.02
2017-08-18T19:12:13.483Z,11.38
2017-08-18T19:14:47.289Z,10.47
2017-08-18T19:17:18.963Z,12.10
2017-08-18T19:19:46.849Z,11.88
2017-08-18T19:22:21.125Z,13.88
2017-08-18T19:24:48.124Z,12.60
2017-08-18T19:30:10.244Z,12.43
2017-08-18T19:32:46.812Z,16.05
2017-08-18T19:35:13.622Z,13.35
2017-08-18T19:37:43.997Z,12.37
2017-08-18T19:40:11.376Z,12.92
2017-08-18T19:42:41.810Z,14.13
2017-08-18T19:45:16.910Z,12.53
2017-08-18T19:47:43.688Z,13.72
2017-08-18T19:52:54.752Z,15.92
2017-08-18T19:55:29.889Z,14.70
2017-08-18T19:58:06.932Z,13.17
2017-08-18T20:00:36.987Z,15.43
2017-08-18T20:04:21.412Z,13.67
2017-08-18T20:06:48.215Z,12.30
2017-08-18T20:09:14.992Z,11.87
2017-08-18T20:11:56.283Z,19.63
2017-08-18T20:14:23.359Z,11.77
2017-08-18T20:16:50.968Z,11.53
2017-08-18T20:19:17.773Z,17.05
2017-08-18T20:21:44.870Z,10.00
2017-08-18T20:24:11.644Z,12.78
2017-08-18T20:26:39.375Z,11.62
2017-08-18T20:29:07.100Z,12.33
2017-08-18T20:31:34.784Z,10.40
2017-08-18T20:34:08.877Z,11.03
2017-08-18T20:36:46.242Z,11.23
2017-08-18T20:39:13.068Z,12.20
2017-08-18T20:41:39.917Z,11.12
2017-08-18T20:44:07.515Z,15.13
2017-08-18T20:46:34.553Z,12.12
2017-08-18T20:49:04.744Z,13.10
2017-08-18T20:51:31.546Z,11.78
2017-08-18T20:53:59.085Z,12.58
2017-08-18T20:56:30.445Z,16.45
2017-08-18T20:58:57.846Z,11.77
2017-08-18T21:01:25.271Z,12.58
2017-08-18T21:03:58.382Z,13.37
2017-08-18T21:11:56.765Z,8.80
2017-08-18T21:14:29.713Z,5.92
2017-08-18T21:16:57.405Z,6.75
2017-08-18T21:19:24.812Z,7.57
2017-08-18T21:21:51.586Z,6.80
2017-08-18T21:24:18.693Z,9.22
2017-08-18T21:26:46.430Z,8.90
2017-08-18T21:29:13.612Z,13.50
2017-08-18T21:48:12.173Z,4.70
2017-08-18T22:07:11.142Z,3.35
2017-08-18T22:09:51.834Z,6.87
2017-08-18T22:12:18.591Z,4.10
2017-08-18T22:14:56.993Z,4.80
2017-08-18T22:17:24.676Z,2.70
2017-08-18T22:19:52.089Z,8.22
2017-08-18T22:22:25.349Z,3.25
2017-08-18T22:24:59.872Z,3.65
2017-08-18T22:27:26.670Z,3.37
2017-08-18T22:32:50.956Z,3.77
2017-08-18T22:35:27.606Z,3.88
2017-08-18T22:37:54.432Z,4.18
2017-08-18T22:40:28.318Z,4.82
2017-08-18T22:42:58.968Z,3.53
2017-08-18T22:45:33.107Z,3.60
2017-08-18T22:48:00.729Z,4.57
2017-08-18T22:50:29.157Z,4.43
2017-08-18T22:52:58.422Z,3.97
2017-08-18T22:55:26.052Z,4.95
2017-08-18T22:57:53.912Z,5.80
2017-08-18T23:00:21.695Z,7.32
2017-08-18T23:02:49.394Z,6.42
2017-08-18T23:05:20.306Z,4.87
2017-08-18T23:07:49.053Z,4.83
2017-08-18T23:10:16.631Z,7.40
2017-08-18T23:12:44.023Z,5.00
2017-08-18T23:15:22.522Z,4.00
2017-08-18T23:17:49.364Z,4.83
2017-08-18T23:20:16.662Z,8.80
2017-08-18T23:22:49.538Z,7.02
2017-08-18T23:25:16.405Z,6.57
2017-08-18T23:27:43.208Z,5.53
2017-08-18T23:30:10.352Z,9.88
2017-08-18T23:32:37.556Z,7.82
2017-08-18T23:35:04.388Z,11.28
2017-08-18T23:37:32.333Z,8.57
2017-08-18T23:40:00.010Z,11.28
2017-08-18T23:42:26.920Z,7.73
2017-08-18T23:44:53.782Z,8.20
2017-08-18T23:47:20.766Z,9.83
2017-08-18T23:49:49.053Z,8.87
2017-08-18T23:52:17.200Z,11.12
2017-08-18T23:54:45.507Z,11.28
2017-08-18T23:57:12.422Z,14.95
2017-08-18T23:59:39.861Z,10.43
